Pagina principale
METAR-TAF:

METAR-TAF

Aeroporti :

Şırnak, Turchia

latitudine: 37-21-50N, longitudine: 42-03-36E, altezza: 621 m

Osservazione

Il bollettino è stato emesso 11 ore e 52 minuti fa, alle 12:50 UTC
Vento 3 kt da ovest/sud-ovest, variando fra sud/sud-ovest e nord
Temperature 31°C
Umidità 10%
Pressione 1013 hPa
Visibilità 10 km o più
nessuna nube inferiore a 1500 m e nessun cumulonembo

METAR: LTCV 301250Z 25003KT 200V350 CAVOK 31/M04 Q1013

Ora: 03:42 (00:42 UTC)

Previsione

Il bollettino è stato emesso 11 ore e 2 minuti fa, alle 13:40 UTC
Previsione valida dal 30 alle 15 UTC al 30 alle 24 UTC
Vento 2 kt da direzioni variabili
Visibilità 10 km o più
nessuna nube inferiore a 1500 m e nessun cumulonembo

TAF: LTCV 301340Z 3015/3024 VRB02KT CAVOK

Osservazioni e previsioni meteorologiche di più di 4000 aeroporti (messaggi METAR e TAF).

Le stazioni disponibili sono rappresentate dai dischi gialli e rossi sulla carta.

Puntare il mouse per vedere il nome della stazione.

Clicca sopra per visualizzare le osservazioni e previsioni meteorologiche.

Per cambiare la mappa : fare clic sui pulsanti verdi con una croce nera per ingrandire, il pulsante verde con un trattino per diminuire, o sulla freccia verde per le mappe adiacenti.


METAR-TAF: